sensor_id;sensor_type;location;lat;lon;timestamp;pressure;altitude;pressure_sealevel;temperature
13497;BMP180;6820;49.374;8.452;2023-04-01T00:00:00;99074.41;;;17.57
13497;BMP180;6820;49.374;8.452;2023-04-01T00:04:12;99077.78;;;17.56
13497;BMP180;6820;49.374;8.452;2023-04-01T00:08:14;99066.66;;;17.54
13497;BMP180;6820;49.374;8.452;2023-04-01T00:12:16;99065.81;;;17.53
13497;BMP180;6820;49.374;8.452;2023-04-01T00:16:17;99060.69;;;17.53
13497;BMP180;6820;49.374;8.452;2023-04-01T00:20:23;99064.94;;;17.53
13497;BMP180;6820;49.374;8.452;2023-04-01T00:24:24;99067.50;;;17.51
13497;BMP180;6820;49.374;8.452;2023-04-01T00:28:27;99059.00;;;17.55
13497;BMP180;6820;49.374;8.452;2023-04-01T00:32:28;99067.59;;;17.57
13497;BMP180;6820;49.374;8.452;2023-04-01T00:36:30;99059.84;;;17.54
13497;BMP180;6820;49.374;8.452;2023-04-01T00:40:35;99065.88;;;17.58
13497;BMP180;6820;49.374;8.452;2023-04-01T00:44:38;99071.84;;;17.57
13497;BMP180;6820;49.374;8.452;2023-04-01T00:48:44;99072.66;;;17.54
13497;BMP180;6820;49.374;8.452;2023-04-01T00:52:48;99058.13;;;17.52
13497;BMP180;6820;49.374;8.452;2023-04-01T00:56:53;99070.06;;;17.51
13497;BMP180;6820;49.374;8.452;2023-04-01T01:00:59;99063.22;;;17.49
13497;BMP180;6820;49.374;8.452;2023-04-01T01:05:01;99049.47;;;17.45
13497;BMP180;6820;49.374;8.452;2023-04-01T01:09:12;99065.66;;;17.43
13497;BMP180;6820;49.374;8.452;2023-04-01T01:22:03;99051.03;;;17.33
13497;BMP180;6820;49.374;8.452;2023-04-01T01:26:28;99045.91;;;17.33
13497;BMP180;6820;49.374;8.452;2023-04-01T01:30:41;99050.22;;;17.36
13497;BMP180;6820;49.374;8.452;2023-04-01T01:39:26;99041.72;;;17.38
13497;BMP180;6820;49.374;8.452;2023-04-01T01:43:34;99042.63;;;17.43
13497;BMP180;6820;49.374;8.452;2023-04-01T01:47:37;99034.97;;;17.44
13497;BMP180;6820;49.374;8.452;2023-04-01T01:51:39;99031.56;;;17.45
13497;BMP180;6820;49.374;8.452;2023-04-01T01:55:45;99036.66;;;17.44
13497;BMP180;6820;49.374;8.452;2023-04-01T01:59:48;99032.38;;;17.43
13497;BMP180;6820;49.374;8.452;2023-04-01T02:03:58;99036.66;;;17.45
13497;BMP180;6820;49.374;8.452;2023-04-01T02:08:22;99017.94;;;17.46
13497;BMP180;6820;49.374;8.452;2023-04-01T02:12:25;99033.28;;;17.46
13497;BMP180;6820;49.374;8.452;2023-04-01T02:16:35;99034.16;;;17.47
13497;BMP180;6820;49.374;8.452;2023-04-01T02:20:38;99041.78;;;17.45
13497;BMP180;6820;49.374;8.452;2023-04-01T02:24:41;99043.50;;;17.45
13497;BMP180;6820;49.374;8.452;2023-04-01T02:28:46;99030.69;;;17.45
13497;BMP180;6820;49.374;8.452;2023-04-01T02:32:49;99038.41;;;17.46
13497;BMP180;6820;49.374;8.452;2023-04-01T02:36:51;99041.78;;;17.44
13497;BMP180;6820;49.374;8.452;2023-04-01T02:40:59;99038.41;;;17.46
13497;BMP180;6820;49.374;8.452;2023-04-01T02:45:02;99047.81;;;17.46
13497;BMP180;6820;49.374;8.452;2023-04-01T02:49:04;99046.06;;;17.43
13497;BMP180;6820;49.374;8.452;2023-04-01T02:53:06;99040.97;;;17.48
13497;BMP180;6820;49.374;8.452;2023-04-01T02:57:08;99035.00;;;17.47
13497;BMP180;6820;49.374;8.452;2023-04-01T03:01:10;99043.50;;;17.45
13497;BMP180;6820;49.374;8.452;2023-04-01T03:05:12;99052.97;;;17.49
13497;BMP180;6820;49.374;8.452;2023-04-01T03:09:14;99045.25;;;17.47
13497;BMP180;6820;49.374;8.452;2023-04-01T03:13:16;99045.19;;;17.43
13497;BMP180;6820;49.374;8.452;2023-04-01T03:17:17;99041.78;;;17.45
13497;BMP180;6820;49.374;8.452;2023-04-01T03:21:22;99046.06;;;17.43
13497;BMP180;6820;49.374;8.452;2023-04-01T03:25:24;99052.03;;;17.45
13497;BMP180;6820;49.374;8.452;2023-04-01T03:29:26;99051.22;;;17.48
13497;BMP180;6820;49.374;8.452;2023-04-01T03:33:27;99055.44;;;17.44
13497;BMP180;6820;49.374;8.452;2023-04-01T03:37:29;99055.41;;;17.43
13497;BMP180;6820;49.374;8.452;2023-04-01T03:41:32;99052.03;;;17.44
13497;BMP180;6820;49.374;8.452;2023-04-01T03:45:34;99050.25;;;17.40
13497;BMP180;6820;49.374;8.452;2023-04-01T03:49:35;99040.06;;;17.43
13497;BMP180;6820;49.374;8.452;2023-04-01T03:53:37;99046.06;;;17.43
13497;BMP180;6820;49.374;8.452;2023-04-01T03:57:40;99047.72;;;17.43
13497;BMP180;6820;49.374;8.452;2023-04-01T04:01:50;99040.94;;;17.45
13497;BMP180;6820;49.374;8.452;2023-04-01T04:05:51;99036.63;;;17.41
13497;BMP180;6820;49.374;8.452;2023-04-01T04:09:54;99034.00;;;17.37
13497;BMP180;6820;49.374;8.452;2023-04-01T04:13:55;99034.78;;;17.31
13497;BMP180;6820;49.374;8.452;2023-04-01T04:17:58;99033.97;;;17.35
13497;BMP180;6820;49.374;8.452;2023-04-01T04:22:00;99033.13;;;17.35
13497;BMP180;6820;49.374;8.452;2023-04-01T04:26:06;99036.47;;;17.29
13497;BMP180;6820;49.374;8.452;2023-04-01T04:30:09;99045.00;;;17.28
13497;BMP180;6820;49.374;8.452;2023-04-01T04:34:11;99026.22;;;17.28
13497;BMP180;6820;49.374;8.452;2023-04-01T04:38:13;99028.78;;;17.28
13497;BMP180;6820;49.374;8.452;2023-04-01T04:42:15;99026.16;;;17.23
13497;BMP180;6820;49.374;8.452;2023-04-01T04:46:16;99023.56;;;17.20
13497;BMP180;6820;49.374;8.452;2023-04-01T04:50:20;99032.91;;;17.18
13497;BMP180;6820;49.374;8.452;2023-04-01T04:54:21;99031.19;;;17.17
13497;BMP180;6820;49.374;8.452;2023-04-01T04:58:29;99021.78;;;17.16
13497;BMP180;6820;49.374;8.452;2023-04-01T05:02:32;99033.78;;;17.20
13497;BMP180;6820;49.374;8.452;2023-04-01T05:06:34;99029.56;;;17.24
13497;BMP180;6820;49.374;8.452;2023-04-01T05:10:36;99038.09;;;17.23
13497;BMP180;6820;49.374;8.452;2023-04-01T05:14:39;99026.97;;;17.21
13497;BMP180;6820;49.374;8.452;2023-04-01T05:18:43;99021.06;;;17.25
13497;BMP180;6820;49.374;8.452;2023-04-01T05:22:46;98963.03;;;17.25
13497;BMP180;6820;49.374;8.452;2023-04-01T05:26:47;99042.41;;;17.25
13497;BMP180;6820;49.374;8.452;2023-04-01T05:30:49;99034.78;;;17.31
13497;BMP180;6820;49.374;8.452;2023-04-01T05:34:56;99033.09;;;17.30
13497;BMP180;6820;49.374;8.452;2023-04-01T05:38:57;99026.22;;;17.29
13497;BMP180;6820;49.374;8.452;2023-04-01T05:43:01;99033.03;;;17.29
13497;BMP180;6820;49.374;8.452;2023-04-01T05:47:03;99017.69;;;17.29
13497;BMP180;6820;49.374;8.452;2023-04-01T05:51:06;99022.09;;;17.38
13497;BMP180;6820;49.374;8.452;2023-04-01T05:55:08;99017.06;;;17.46
13497;BMP180;6820;49.374;8.452;2023-04-01T05:59:11;99017.09;;;17.49
13497;BMP180;6820;49.374;8.452;2023-04-01T06:03:13;99012.84;;;17.49
13497;BMP180;6820;49.374;8.452;2023-04-01T06:07:17;99010.28;;;17.51
13497;BMP180;6820;49.374;8.452;2023-04-01T06:16:00;99011.09;;;17.48
13497;BMP180;6820;49.374;8.452;2023-04-01T06:20:15;99008.53;;;17.48
13497;BMP180;6820;49.374;8.452;2023-04-01T06:38:27;99027.25;;;17.43
13497;BMP180;6820;49.374;8.452;2023-04-01T06:47:26;99017.88;;;17.40
13497;BMP180;6820;49.374;8.452;2023-04-01T06:52:10;99005.09;;;17.43
13497;BMP180;6820;49.374;8.452;2023-04-01T06:56:58;99017.13;;;17.52
13497;BMP180;6820;49.374;8.452;2023-04-01T07:01:04;98997.63;;;17.63
13497;BMP180;6820;49.374;8.452;2023-04-01T07:05:08;99007.06;;;17.67
13497;BMP180;6820;49.374;8.452;2023-04-01T07:09:17;99007.09;;;17.69
13497;BMP180;6820;49.374;8.452;2023-04-01T07:13:47;98975.59;;;17.78
13497;BMP180;6820;49.374;8.452;2023-04-01T07:18:03;99015.81;;;17.83
13497;BMP180;6820;49.374;8.452;2023-04-01T07:22:27;99015.81;;;17.83
13497;BMP180;6820;49.374;8.452;2023-04-01T07:26:55;99014.00;;;17.76
13497;BMP180;6820;49.374;8.452;2023-04-01T07:35:13;99006.66;;;18.04
13497;BMP180;6820;49.374;8.452;2023-04-01T07:43:53;98997.53;;;18.34
13497;BMP180;6820;49.374;8.452;2023-04-01T07:48:17;98976.22;;;18.40
13497;BMP180;6820;49.374;8.452;2023-04-01T07:52:31;99005.44;;;18.58
13497;BMP180;6820;49.374;8.452;2023-04-01T08:05:57;99007.50;;;19.03
13497;BMP180;6820;49.374;8.452;2023-04-01T08:15:01;99024.47;;;18.88
13497;BMP180;6820;49.374;8.452;2023-04-01T08:23:43;99022.81;;;18.94
13497;BMP180;6820;49.374;8.452;2023-04-01T08:27:53;99025.41;;;18.96
13497;BMP180;6820;49.374;8.452;2023-04-01T08:32:28;99027.84;;;18.84
13497;BMP180;6820;49.374;8.452;2023-04-01T08:36:39;99039.81;;;18.79
13497;BMP180;6820;49.374;8.452;2023-04-01T08:41:00;99043.97;;;18.64
13497;BMP180;6820;49.374;8.452;2023-04-01T08:45:26;99034.50;;;18.59
13497;BMP180;6820;49.374;8.452;2023-04-01T08:53:59;99035.50;;;18.75
13497;BMP180;6820;49.374;8.452;2023-04-01T09:02:50;99032.25;;;18.92
13497;BMP180;6820;49.374;8.452;2023-04-01T09:17:25;99044.31;;;19.04
13497;BMP180;6820;49.374;8.452;2023-04-01T09:21:57;99051.16;;;19.06
13497;BMP180;6820;49.374;8.452;2023-04-01T09:26:27;99049.25;;;18.86
13497;BMP180;6820;49.374;8.452;2023-04-01T09:30:53;99058.53;;;18.69
13497;BMP180;6820;49.374;8.452;2023-04-01T09:35:05;99076.44;;;18.62
13497;BMP180;6820;49.374;8.452;2023-04-01T09:39:47;99071.25;;;18.58
13497;BMP180;6820;49.374;8.452;2023-04-01T09:44:08;99062.69;;;18.53
13497;BMP180;6820;49.374;8.452;2023-04-01T09:53:18;99068.66;;;18.50
13497;BMP180;6820;49.374;8.452;2023-04-01T10:37:55;99087.56;;;18.65
13497;BMP180;6820;49.374;8.452;2023-04-01T10:56:32;99086.03;;;18.82
13497;BMP180;6820;49.374;8.452;2023-04-01T11:10:38;99094.06;;;19.23
13497;BMP180;6820;49.374;8.452;2023-04-01T11:41:47;99106.88;;;19.18
13497;BMP180;6820;49.374;8.452;2023-04-01T11:46:41;99114.59;;;19.19
13497;BMP180;6820;49.374;8.452;2023-04-01T12:08:02;99130.78;;;19.12
13497;BMP180;6820;49.374;8.452;2023-04-01T12:12:20;99135.06;;;19.10
13497;BMP180;6820;49.374;8.452;2023-04-01T12:16:49;99137.63;;;19.13
13497;BMP180;6820;49.374;8.452;2023-04-01T12:25:26;99140.31;;;19.25
13497;BMP180;6820;49.374;8.452;2023-04-01T12:50:28;99143.06;;;19.56
13497;BMP180;6820;49.374;8.452;2023-04-01T12:54:55;99160.22;;;19.55
13497;BMP180;6820;49.374;8.452;2023-04-01T13:07:59;99166.16;;;19.50
13497;BMP180;6820;49.374;8.452;2023-04-01T13:12:40;99159.25;;;19.39
13497;BMP180;6820;49.374;8.452;2023-04-01T13:29:36;99180.50;;;19.22
13497;BMP180;6820;49.374;8.452;2023-04-01T13:43:16;99184.91;;;19.33
13497;BMP180;6820;49.374;8.452;2023-04-01T14:01:05;99198.69;;;19.47
13497;BMP180;6820;49.374;8.452;2023-04-01T14:27:21;99213.06;;;19.24
13497;BMP180;6820;49.374;8.452;2023-04-01T14:49:04;99235.13;;;19.03
13497;BMP180;6820;49.374;8.452;2023-04-01T14:53:28;99235.97;;;19.02
13497;BMP180;6820;49.374;8.452;2023-04-01T14:57:31;99235.94;;;18.99
13497;BMP180;6820;49.374;8.452;2023-04-01T15:01:45;99253.88;;;18.96
13497;BMP180;6820;49.374;8.452;2023-04-01T15:15:21;99253.75;;;18.86
13497;BMP180;6820;49.374;8.452;2023-04-01T15:19:31;99251.19;;;18.86
13497;BMP180;6820;49.374;8.452;2023-04-01T15:23:56;99251.22;;;18.89
13497;BMP180;6820;49.374;8.452;2023-04-01T15:33:24;99252.25;;;19.04
13497;BMP180;6820;49.374;8.452;2023-04-01T15:37:07;99255.69;;;19.04
13497;BMP180;6820;49.374;8.452;2023-04-01T15:41:24;99251.47;;;19.09
13497;BMP180;6820;49.374;8.452;2023-04-01T15:45:38;99248.91;;;19.14
13497;BMP180;6820;49.374;8.452;2023-04-01T15:49:44;99266.84;;;19.08
13497;BMP180;6820;49.374;8.452;2023-04-01T15:58:33;99277.31;;;19.28
13497;BMP180;6820;49.374;8.452;2023-04-01T16:07:16;99286.69;;;19.23
13497;BMP180;6820;49.374;8.452;2023-04-01T16:20:20;99291.38;;;18.82
13497;BMP180;6820;49.374;8.452;2023-04-01T16:24:43;99294.00;;;18.88
13497;BMP180;6820;49.374;8.452;2023-04-01T16:37:41;99309.34;;;18.87
13497;BMP180;6820;49.374;8.452;2023-04-01T16:41:51;99303.28;;;18.77
13497;BMP180;6820;49.374;8.452;2023-04-01T16:50:20;99315.94;;;18.64
13497;BMP180;6820;49.374;8.452;2023-04-01T16:54:41;99319.38;;;18.64
13497;BMP180;6820;49.374;8.452;2023-04-01T17:11:46;99344.16;;;18.65
13497;BMP180;6820;49.374;8.452;2023-04-01T17:20:14;99340.00;;;18.72
13497;BMP180;6820;49.374;8.452;2023-04-01T17:37:29;99367.38;;;18.73
13497;BMP180;6820;49.374;8.452;2023-04-01T17:45:57;99378.34;;;18.61
13497;BMP180;6820;49.374;8.452;2023-04-01T17:55:23;99390.75;;;18.33
13497;BMP180;6820;49.374;8.452;2023-04-01T18:04:37;99406.16;;;18.33
13497;BMP180;6820;49.374;8.452;2023-04-01T18:09:00;99412.22;;;18.38
13497;BMP180;6820;49.374;8.452;2023-04-01T18:13:25;99418.22;;;18.40
13497;BMP180;6820;49.374;8.452;2023-04-01T18:21:51;99442.25;;;18.45
13497;BMP180;6820;49.374;8.452;2023-04-01T18:26:10;99444.78;;;18.44
13497;BMP180;6820;49.374;8.452;2023-04-01T18:30:27;99448.25;;;18.46
13497;BMP180;6820;49.374;8.452;2023-04-01T18:34:51;99463.50;;;18.37
13497;BMP180;6820;49.374;8.452;2023-04-01T18:39:10;99460.56;;;18.15
13497;BMP180;6820;49.374;8.452;2023-04-01T18:43:22;99460.69;;;18.21
13497;BMP180;6820;49.374;8.452;2023-04-01T18:51:55;99488.03;;;18.22
13497;BMP180;6820;49.374;8.452;2023-04-01T18:56:01;99481.19;;;18.22
13497;BMP180;6820;49.374;8.452;2023-04-01T19:00:44;99482.81;;;18.17
13497;BMP180;6820;49.374;8.452;2023-04-01T19:04:56;99495.50;;;18.08
13497;BMP180;6820;49.374;8.452;2023-04-01T19:09:25;99497.84;;;17.98
13497;BMP180;6820;49.374;8.452;2023-04-01T19:13:33;99501.91;;;17.87
13497;BMP180;6820;49.374;8.452;2023-04-01T19:22:03;99506.00;;;17.78
13497;BMP180;6820;49.374;8.452;2023-04-01T19:26:29;99507.00;;;17.86
13497;BMP180;6820;49.374;8.452;2023-04-01T19:30:53;99508.78;;;17.90
13497;BMP180;6820;49.374;8.452;2023-04-01T19:35:28;99503.75;;;17.94
13497;BMP180;6820;49.374;8.452;2023-04-01T19:44:12;99516.69;;;18.00
13497;BMP180;6820;49.374;8.452;2023-04-01T19:52:49;99521.03;;;18.04
13497;BMP180;6820;49.374;8.452;2023-04-01T19:57:15;99527.16;;;18.10
13497;BMP180;6820;49.374;8.452;2023-04-01T20:01:24;99533.16;;;18.12
13497;BMP180;6820;49.374;8.452;2023-04-01T20:10:22;99544.31;;;18.13
13497;BMP180;6820;49.374;8.452;2023-04-01T20:18:59;99559.63;;;18.10
13497;BMP180;6820;49.374;8.452;2023-04-01T20:31:25;99567.84;;;17.94
13497;BMP180;6820;49.374;8.452;2023-04-01T20:40:08;99578.00;;;17.90
13497;BMP180;6820;49.374;8.452;2023-04-01T20:44:21;99582.22;;;17.88
13497;BMP180;6820;49.374;8.452;2023-04-01T20:48:40;99579.53;;;17.82
13497;BMP180;6820;49.374;8.452;2023-04-01T20:53:00;99572.75;;;17.84
13497;BMP180;6820;49.374;8.452;2023-04-01T20:57:19;99581.25;;;17.83
13497;BMP180;6820;49.374;8.452;2023-04-01T21:01:44;99583.75;;;17.78
13497;BMP180;6820;49.374;8.452;2023-04-01T21:06:09;99583.69;;;17.75
13497;BMP180;6820;49.374;8.452;2023-04-01T21:27:28;99607.41;;;17.67
13497;BMP180;6820;49.374;8.452;2023-04-01T21:32:02;99616.00;;;17.68
13497;BMP180;6820;49.374;8.452;2023-04-01T21:40:51;99626.94;;;17.61
13497;BMP180;6820;49.374;8.452;2023-04-01T21:45:09;99630.28;;;17.58
13497;BMP180;6820;49.374;8.452;2023-04-01T22:06:38;99641.16;;;17.48
13497;BMP180;6820;49.374;8.452;2023-04-01T22:10:51;99642.91;;;17.51
13497;BMP180;6820;49.374;8.452;2023-04-01T22:19:47;99648.88;;;17.50
13497;BMP180;6820;49.374;8.452;2023-04-01T22:24:04;99652.44;;;17.55
13497;BMP180;6820;49.374;8.452;2023-04-01T22:28:29;99657.53;;;17.55
13497;BMP180;6820;49.374;8.452;2023-04-01T22:41:40;99660.78;;;17.48
13497;BMP180;6820;49.374;8.452;2023-04-01T22:46:02;99669.38;;;17.50
13497;BMP180;6820;49.374;8.452;2023-04-01T22:50:30;99666.88;;;17.51
13497;BMP180;6820;49.374;8.452;2023-04-01T22:54:46;99669.44;;;17.53
13497;BMP180;6820;49.374;8.452;2023-04-01T22:59:10;99679.75;;;17.54
13497;BMP180;6820;49.374;8.452;2023-04-01T23:03:34;99677.06;;;17.50
13497;BMP180;6820;49.374;8.452;2023-04-01T23:07:48;99687.44;;;17.54
13497;BMP180;6820;49.374;8.452;2023-04-01T23:12:16;99696.72;;;17.51
13497;BMP180;6820;49.374;8.452;2023-04-01T23:16:29;99698.41;;;17.49
13497;BMP180;6820;49.374;8.452;2023-04-01T23:20:58;99708.59;;;17.46
13497;BMP180;6820;49.374;8.452;2023-04-01T23:29:17;99721.16;;;17.37
13497;BMP180;6820;49.374;8.452;2023-04-01T23:37:22;99727.19;;;17.39
13497;BMP180;6820;49.374;8.452;2023-04-01T23:41:29;99735.84;;;17.44
13497;BMP180;6820;49.374;8.452;2023-04-01T23:45:33;99743.53;;;17.45
13497;BMP180;6820;49.374;8.452;2023-04-01T23:49:58;99743.53;;;17.45
13497;BMP180;6820;49.374;8.452;2023-04-01T23:54:16;99746.09;;;17.44
13497;BMP180;6820;49.374;8.452;2023-04-01T23:58:27;99745.22;;;17.43
